OERY

Riyadh Air Base Airport

Riyadh, Saudi Arabia
TAF OERY 182300Z 1900/2006 VRB03KT 8000 NSC TEMPO 1900/1912 4000 DU BECMG 1906/1908 03013KT
Issued Valid From Valid To
Jan-18 @ 23:00 UTC
(4 hours ago)
Jan-19 @ 00:00 UTC
(3 hours ago)
Jan-20 @ 06:00 UTC
(-1 days ago)
Jan-19 @ 00:00 to Jan-19 @ 06:00
TAF OERY 182300Z 1900/2006 VRB03KT 8000 NSC
Wind Visibility Clouds
Variable at 3 knots 7,998 meters
  • No significant clouds
Temporary Jan-19 @ 00:00 to Jan-19 @ 12:00
TEMPO 1900/1912 4000 DU
Visibility Conditions
4,007 meters
  • Dust
Becoming Jan-19 @ 06:00 to Jan-20 @ 06:00
BECMG 1906/1908 03013KT
Wind Visibility Clouds
30° at 13 knots 7,998 meters
  • No significant clouds
TAF OERY 182300Z 1900/2006 VRB03KT 8000 NSC TEMPO 1900/1912 4000 DU BECMG 1906/1908 03013KT
Issued Jan-18 @ 23:00 UTC
(4 hours ago)
Valid From Jan-19 @ 00:00 UTC
(3 hours ago)
Valid To Jan-20 @ 06:00 UTC
(-1 days ago)
Jan-19 @ 00:00 - Jan-19 @ 06:00
Wind Visibility
Variable at 3 knots 7,998 meters
Clouds
  • No significant clouds
Temporary Jan-19 @ 00:00 - Jan-19 @ 12:00
Conditions
  • Dust
Becoming Jan-19 @ 06:00 - Jan-20 @ 06:00
Wind Visibility
30° at 13 knots 7,998 meters
Clouds
  • No significant clouds